createdAt,value
2023-02-06T00:00:25.155Z,33.90
2023-02-06T00:01:25.134Z,36.20
2023-02-06T00:02:25.129Z,36.30
2023-02-06T00:03:25.089Z,34.50
2023-02-06T00:04:25.133Z,34.30
2023-02-06T00:05:25.086Z,37.70
2023-02-06T00:06:25.055Z,39.20
2023-02-06T00:07:25.048Z,38.70
2023-02-06T00:08:25.035Z,40.50
2023-02-06T00:09:25.026Z,33.90
2023-02-06T00:10:25.055Z,32.80
2023-02-06T00:11:25.044Z,38.20
2023-02-06T00:12:24.998Z,37.30
2023-02-06T00:13:24.991Z,39.50
2023-02-06T00:14:25.005Z,41.80
2023-02-06T00:15:24.962Z,35.50
2023-02-06T00:16:25.005Z,40.00
2023-02-06T00:17:24.945Z,36.40
2023-02-06T00:18:24.933Z,37.70
2023-02-06T00:19:24.953Z,38.80
2023-02-06T00:20:24.927Z,39.90
2023-02-06T00:21:24.890Z,36.10
2023-02-06T00:22:24.890Z,45.50
2023-02-06T00:23:24.872Z,39.10
2023-02-06T00:24:24.862Z,39.90
2023-02-06T00:25:24.900Z,32.30
2023-02-06T00:26:24.847Z,37.60
2023-02-06T00:27:24.856Z,32.80
2023-02-06T00:28:24.880Z,34.30
2023-02-06T00:29:24.848Z,35.30
2023-02-06T00:30:24.862Z,38.70
2023-02-06T00:31:24.882Z,28.60
2023-02-06T00:32:24.797Z,33.60
2023-02-06T00:33:24.789Z,34.30
2023-02-06T00:34:24.771Z,27.70
2023-02-06T00:35:24.753Z,30.70
2023-02-06T00:36:24.799Z,31.30
2023-02-06T00:37:24.734Z,30.30
2023-02-06T00:38:24.764Z,36.60
2023-02-06T00:39:24.718Z,26.30
2023-02-06T00:40:24.734Z,29.50
2023-02-06T00:41:24.694Z,30.00
2023-02-06T00:42:24.676Z,29.40
2023-02-06T00:43:24.724Z,39.00
2023-02-06T00:44:24.662Z,39.20
2023-02-06T00:45:24.675Z,35.90
2023-02-06T00:46:24.727Z,37.60
2023-02-06T00:47:24.637Z,38.00
2023-02-06T00:48:24.616Z,31.80
2023-02-06T00:49:24.662Z,34.30
2023-02-06T00:50:24.594Z,34.90
2023-02-06T00:51:24.588Z,40.30
2023-02-06T00:52:24.574Z,35.80
2023-02-06T00:53:24.563Z,38.40
2023-02-06T00:54:24.566Z,41.40
2023-02-06T00:55:24.589Z,40.60
2023-02-06T00:56:24.568Z,36.00
2023-02-06T00:57:24.570Z,35.10
2023-02-06T00:58:24.524Z,43.90
2023-02-06T00:59:24.572Z,41.80
2023-02-06T01:00:24.495Z,42.30
2023-02-06T01:01:24.527Z,40.20
2023-02-06T01:02:24.523Z,37.70
2023-02-06T01:03:24.470Z,35.70
2023-02-06T01:04:24.484Z,34.90
2023-02-06T01:05:24.442Z,39.10
2023-02-06T01:06:24.439Z,42.90
2023-02-06T01:07:24.419Z,39.00
2023-02-06T01:08:24.419Z,33.40
2023-02-06T01:09:24.398Z,42.70
2023-02-06T01:10:24.424Z,36.40
2023-02-06T01:11:24.445Z,39.60
2023-02-06T01:12:24.367Z,44.10
2023-02-06T01:13:24.356Z,37.90
2023-02-06T01:14:24.337Z,35.60
2023-02-06T01:15:24.388Z,30.20
2023-02-06T01:16:24.405Z,33.10
2023-02-06T01:17:24.316Z,40.00
2023-02-06T01:18:24.294Z,39.70
2023-02-06T01:19:24.294Z,37.30
2023-02-06T01:20:24.285Z,34.60
2023-02-06T01:21:24.302Z,35.20
2023-02-06T01:22:24.279Z,34.00
2023-02-06T01:23:24.284Z,43.40
2023-02-06T01:24:24.240Z,33.20
2023-02-06T01:25:24.254Z,35.70
2023-02-06T01:26:24.211Z,29.60
2023-02-06T01:27:24.208Z,38.60
2023-02-06T01:28:24.211Z,35.00
2023-02-06T01:29:24.213Z,36.20
2023-02-06T01:30:24.233Z,38.90
2023-02-06T01:31:24.207Z,39.30
2023-02-06T01:32:24.153Z,34.00
2023-02-06T01:33:24.620Z,34.20
2023-02-06T01:34:24.140Z,36.20
2023-02-06T01:35:24.121Z,33.90
2023-02-06T01:36:24.112Z,34.00
2023-02-06T01:37:24.102Z,39.30
2023-02-06T01:38:24.091Z,37.30
2023-02-06T01:39:24.119Z,32.40
2023-02-06T01:40:24.072Z,34.60
2023-02-06T01:41:24.105Z,32.80
2023-02-06T01:42:24.049Z,32.50
2023-02-06T01:43:24.039Z,34.70
2023-02-06T01:44:24.024Z,36.40
2023-02-06T01:45:24.052Z,37.60
2023-02-06T01:46:24.020Z,40.10
2023-02-06T01:47:23.996Z,41.70
2023-02-06T01:48:23.979Z,41.10
2023-02-06T01:49:23.979Z,35.80
2023-02-06T01:50:23.960Z,33.60
2023-02-06T01:51:24.017Z,36.40
2023-02-06T01:52:23.970Z,38.50
2023-02-06T01:53:23.929Z,37.30
2023-02-06T01:54:23.916Z,32.80
2023-02-06T01:55:23.908Z,35.60
2023-02-06T01:56:23.928Z,42.60
2023-02-06T01:57:23.927Z,42.30
2023-02-06T01:58:23.934Z,33.60
2023-02-06T01:59:23.866Z,39.80
2023-02-06T02:00:23.888Z,38.10
2023-02-06T02:01:23.850Z,40.10
2023-02-06T02:02:23.846Z,35.20
2023-02-06T02:03:23.868Z,39.20
2023-02-06T02:04:23.821Z,36.10
2023-02-06T02:05:23.824Z,43.10
2023-02-06T02:06:23.786Z,33.00
2023-02-06T02:07:23.788Z,40.70
2023-02-06T02:08:23.820Z,39.50
2023-02-06T02:09:23.756Z,33.70
2023-02-06T02:10:23.746Z,35.60
2023-02-06T02:11:23.741Z,45.50
2023-02-06T02:12:23.739Z,40.40
2023-02-06T02:13:23.726Z,43.20
2023-02-06T02:14:23.737Z,35.70
2023-02-06T02:15:23.705Z,42.20
2023-02-06T02:16:23.788Z,41.50
2023-02-06T02:17:23.681Z,40.50
2023-02-06T02:18:23.698Z,40.80
2023-02-06T02:19:23.677Z,38.60
2023-02-06T02:20:23.649Z,46.10
2023-02-06T02:21:23.639Z,44.70
2023-02-06T02:22:23.622Z,42.90
2023-02-06T02:23:23.621Z,47.40
2023-02-06T02:24:23.660Z,43.80
2023-02-06T02:25:23.601Z,42.60
2023-02-06T02:26:23.639Z,36.00
2023-02-06T02:27:23.618Z,39.60
2023-02-06T02:28:23.561Z,42.70
2023-02-06T02:29:23.601Z,40.90
2023-02-06T02:30:23.575Z,44.10
2023-02-06T02:31:23.570Z,39.50
2023-02-06T02:32:23.589Z,45.20
2023-02-06T02:33:23.540Z,38.10
2023-02-06T02:34:23.505Z,36.70
2023-02-06T02:35:23.527Z,45.70
2023-02-06T02:36:23.489Z,31.80
2023-02-06T02:37:23.504Z,41.90
2023-02-06T02:38:23.460Z,35.90
2023-02-06T02:39:23.471Z,45.30
2023-02-06T02:40:23.519Z,44.60
2023-02-06T02:41:23.436Z,51.70
2023-02-06T02:42:23.467Z,38.20
2023-02-06T02:43:23.448Z,44.60
2023-02-06T02:44:23.399Z,44.10
2023-02-06T02:45:23.400Z,40.10
2023-02-06T02:46:23.367Z,44.00
2023-02-06T02:47:23.367Z,49.90
2023-02-06T02:48:23.349Z,52.50
2023-02-06T02:49:23.414Z,46.20
2023-02-06T02:50:23.334Z,47.30
2023-02-06T02:51:23.324Z,46.30
2023-02-06T02:52:23.333Z,53.60
2023-02-06T02:53:23.312Z,43.40
2023-02-06T02:54:23.322Z,44.80
2023-02-06T02:55:23.303Z,41.40
2023-02-06T02:56:23.270Z,38.00
2023-02-06T02:57:23.259Z,44.10
2023-02-06T02:58:23.303Z,46.60
2023-02-06T02:59:23.232Z,47.70
2023-02-06T03:00:23.278Z,46.30
2023-02-06T03:01:23.250Z,41.20
2023-02-06T03:02:23.228Z,43.30
2023-02-06T03:03:23.180Z,48.30
2023-02-06T03:04:23.179Z,46.00
2023-02-06T03:05:23.171Z,58.60
2023-02-06T03:06:23.153Z,47.70
2023-02-06T03:07:23.170Z,38.10
2023-02-06T03:08:23.174Z,38.70
2023-02-06T03:09:23.137Z,52.30
2023-02-06T03:10:23.134Z,50.60
2023-02-06T03:11:23.145Z,48.30
2023-02-06T03:12:23.093Z,45.00
2023-02-06T03:13:23.083Z,41.90
2023-02-06T03:14:23.105Z,48.40
2023-02-06T03:15:23.076Z,47.30
2023-02-06T03:16:23.064Z,40.00
2023-02-06T03:17:23.084Z,43.80
2023-02-06T03:18:23.020Z,47.00
2023-02-06T03:19:23.017Z,43.70
2023-02-06T03:20:23.006Z,49.10
2023-02-06T03:21:23.000Z,47.90
2023-02-06T03:22:22.986Z,47.60
2023-02-06T03:23:23.043Z,45.00
2023-02-06T03:24:22.986Z,46.90
2023-02-06T03:25:22.967Z,44.90
2023-02-06T03:26:23.046Z,49.40
2023-02-06T03:27:22.936Z,43.20
2023-02-06T03:28:22.926Z,57.30
2023-02-06T03:29:22.922Z,49.40
2023-02-06T03:30:22.945Z,47.90
2023-02-06T03:31:22.947Z,50.00
2023-02-06T03:32:22.907Z,50.30
2023-02-06T03:33:22.867Z,53.00
2023-02-06T03:34:22.857Z,52.40
2023-02-06T03:35:22.848Z,49.10
2023-02-06T03:36:22.845Z,48.40
2023-02-06T03:37:22.827Z,58.20
2023-02-06T03:38:22.843Z,51.70
2023-02-06T03:39:22.856Z,50.70
2023-02-06T03:40:22.787Z,62.90
2023-02-06T03:41:22.815Z,56.20
2023-02-06T03:42:22.827Z,50.50
2023-02-06T03:43:22.770Z,54.80
2023-02-06T03:44:22.745Z,51.70
2023-02-06T03:45:22.746Z,45.20
2023-02-06T03:46:22.726Z,59.80
2023-02-06T03:47:22.828Z,48.30
2023-02-06T03:48:22.712Z,44.10
2023-02-06T03:49:22.704Z,53.00
2023-02-06T03:50:22.695Z,55.10
2023-02-06T03:51:22.715Z,46.50
2023-02-06T03:52:22.665Z,48.00
2023-02-06T03:53:22.686Z,46.10
2023-02-06T03:54:22.648Z,44.60
2023-02-06T03:55:22.637Z,44.50
2023-02-06T03:56:22.668Z,45.70
2023-02-06T03:57:22.615Z,54.30
2023-02-06T03:58:24.500Z,46.30
2023-02-06T03:59:22.674Z,46.10
2023-02-06T04:00:22.576Z,48.50
2023-02-06T04:01:22.641Z,38.80
2023-02-06T04:02:22.656Z,39.20
2023-02-06T04:03:22.554Z,46.40
2023-02-06T04:04:22.539Z,42.10
2023-02-06T04:05:22.545Z,42.40
2023-02-06T04:06:22.526Z,43.70
2023-02-06T04:07:22.559Z,40.60
2023-02-06T04:08:22.656Z,69.40
2023-02-06T04:09:22.539Z,52.10
2023-02-06T04:10:23.480Z,50.40
2023-02-06T04:11:22.505Z,50.70
2023-02-06T04:12:22.454Z,47.00
2023-02-06T04:13:22.449Z,45.20
2023-02-06T04:14:22.437Z,54.00
2023-02-06T04:15:22.487Z,54.10
2023-02-06T04:16:22.475Z,42.70
2023-02-06T04:17:40.511Z,48.30
2023-02-06T04:18:23.437Z,61.40
2023-02-06T04:19:22.386Z,58.80
2023-02-06T04:20:22.377Z,61.90
2023-02-06T04:21:22.365Z,68.70
2023-02-06T04:22:22.354Z,61.00
2023-02-06T04:23:22.354Z,65.90
2023-02-06T04:24:22.357Z,54.50
2023-02-06T04:25:22.325Z,62.60
2023-02-06T04:26:22.386Z,57.50
2023-02-06T04:27:22.313Z,62.50
2023-02-06T04:28:22.535Z,67.20
2023-02-06T04:29:22.348Z,67.70
2023-02-06T04:30:22.358Z,124.80
2023-02-06T04:31:22.289Z,72.50
2023-02-06T04:32:22.256Z,66.10
2023-02-06T04:33:22.257Z,69.60
2023-02-06T04:34:22.262Z,128.60
2023-02-06T04:35:22.231Z,150.20
2023-02-06T04:36:22.237Z,99.70
2023-02-06T04:37:22.201Z,85.90
2023-02-06T04:38:22.242Z,83.80
2023-02-06T04:39:22.173Z,152.60
2023-02-06T04:40:22.172Z,78.90
2023-02-06T04:41:22.152Z,166.30
2023-02-06T04:42:22.199Z,88.20
2023-02-06T04:43:22.147Z,85.30
2023-02-06T04:44:22.171Z,83.80
2023-02-06T04:45:22.110Z,86.40
2023-02-06T04:46:22.174Z,76.10
2023-02-06T04:47:22.110Z,97.00
2023-02-06T04:48:22.160Z,101.10
2023-02-06T04:49:22.090Z,94.10
2023-02-06T04:50:22.066Z,92.30
2023-02-06T04:51:22.041Z,73.10
2023-02-06T04:52:22.086Z,119.00
2023-02-06T04:53:22.022Z,81.80
2023-02-06T04:54:22.069Z,121.90
2023-02-06T04:55:22.002Z,75.10
2023-02-06T04:56:22.021Z,67.20
2023-02-06T04:57:21.979Z,80.40
2023-02-06T04:58:22.042Z,100.40
2023-02-06T04:59:21.962Z,67.60
2023-02-06T05:00:21.991Z,80.90
2023-02-06T05:01:22.024Z,110.20
2023-02-06T05:02:21.962Z,74.40
2023-02-06T05:03:21.967Z,92.40
2023-02-06T05:04:21.908Z,111.80
2023-02-06T05:05:21.893Z,111.50
2023-02-06T05:06:21.897Z,119.30
2023-02-06T05:07:21.955Z,73.80
2023-02-06T05:08:21.876Z,144.10
2023-02-06T05:09:21.983Z,93.70
2023-02-06T05:10:21.833Z,101.50
2023-02-06T05:11:21.837Z,83.80
2023-02-06T05:12:21.822Z,84.40
2023-02-06T05:13:21.831Z,89.20
2023-02-06T05:14:21.855Z,87.50
2023-02-06T05:15:21.855Z,91.50
2023-02-06T05:16:21.801Z,85.40
2023-02-06T05:17:21.789Z,66.00
2023-02-06T05:18:21.751Z,65.80
2023-02-06T05:19:21.727Z,67.90
2023-02-06T05:20:21.729Z,58.00
2023-02-06T05:21:21.736Z,67.40
2023-02-06T05:22:21.702Z,54.70
2023-02-06T05:23:21.696Z,64.90
2023-02-06T05:24:21.726Z,56.00
2023-02-06T05:25:21.663Z,55.70
2023-02-06T05:26:21.667Z,57.60
2023-02-06T05:27:21.669Z,56.30
2023-02-06T05:28:21.660Z,49.70
2023-02-06T05:29:21.638Z,50.50
2023-02-06T05:30:21.674Z,46.40
2023-02-06T05:31:21.755Z,48.10
2023-02-06T05:32:21.603Z,57.60
2023-02-06T05:33:21.596Z,46.50
2023-02-06T05:34:21.596Z,43.10
2023-02-06T05:35:21.595Z,50.40
2023-02-06T05:36:21.615Z,67.30
2023-02-06T05:37:21.547Z,57.60
2023-02-06T05:38:21.543Z,54.80
2023-02-06T05:39:21.534Z,50.60
2023-02-06T05:40:21.518Z,56.30
2023-02-06T05:41:21.586Z,46.20
2023-02-06T05:42:21.503Z,39.80
2023-02-06T05:43:21.489Z,44.30
2023-02-06T05:44:21.478Z,47.60
2023-02-06T05:45:21.463Z,47.90
2023-02-06T05:46:21.552Z,50.60
2023-02-06T05:47:21.449Z,50.90
2023-02-06T05:48:21.449Z,46.90
2023-02-06T05:49:21.428Z,47.40
2023-02-06T05:50:21.482Z,45.40
2023-02-06T05:51:21.390Z,54.90
2023-02-06T05:52:21.488Z,64.20
2023-02-06T05:53:21.385Z,66.20
2023-02-06T05:54:21.424Z,61.00
2023-02-06T05:55:21.391Z,58.20
2023-02-06T05:56:21.545Z,55.20
2023-02-06T05:57:21.357Z,59.20
2023-02-06T05:58:21.338Z,65.70
2023-02-06T05:59:21.385Z,54.60
2023-02-06T06:00:21.308Z,81.70
2023-02-06T06:01:21.299Z,69.70
2023-02-06T06:02:21.317Z,70.90
2023-02-06T06:03:21.279Z,74.60
2023-02-06T06:04:21.351Z,47.90
2023-02-06T06:05:21.280Z,59.20
2023-02-06T06:06:21.245Z,55.80
2023-02-06T06:07:21.232Z,56.20
2023-02-06T06:08:21.267Z,49.80
2023-02-06T06:09:21.597Z,64.80
2023-02-06T06:10:21.213Z,61.00
2023-02-06T06:11:21.200Z,83.10
2023-02-06T06:12:21.208Z,70.90
2023-02-06T06:13:21.242Z,60.10
2023-02-06T06:14:21.169Z,74.60
2023-02-06T06:15:21.168Z,67.00
2023-02-06T06:16:21.235Z,74.20
2023-02-06T06:17:21.139Z,81.60
2023-02-06T06:18:21.133Z,111.30
2023-02-06T06:19:21.116Z,76.00
2023-02-06T06:20:21.108Z,85.50
2023-02-06T06:21:21.117Z,97.90
2023-02-06T06:22:21.078Z,128.40
2023-02-06T06:23:21.069Z,168.80
2023-02-06T06:24:21.060Z,188.60
2023-02-06T06:25:21.080Z,90.80
2023-02-06T06:26:21.132Z,73.20
2023-02-06T06:27:21.029Z,82.40
2023-02-06T06:28:21.051Z,78.40
2023-02-06T06:29:21.006Z,83.40
2023-02-06T06:30:20.998Z,87.10
2023-02-06T06:31:21.192Z,159.70
2023-02-06T06:32:20.978Z,140.20
2023-02-06T06:33:21.048Z,216.10
2023-02-06T06:34:20.956Z,141.60
2023-02-06T06:35:20.935Z,91.10
2023-02-06T06:36:20.925Z,141.00
2023-02-06T06:37:20.926Z,85.40
2023-02-06T06:38:20.944Z,193.80
2023-02-06T06:39:20.894Z,64.50
2023-02-06T06:40:20.958Z,172.50
2023-02-06T06:41:20.882Z,88.90
2023-02-06T06:42:20.872Z,82.50
2023-02-06T06:43:20.853Z,64.30
2023-02-06T06:44:20.873Z,77.30
2023-02-06T06:45:20.893Z,126.60
2023-02-06T06:46:20.825Z,51.40
2023-02-06T06:47:20.813Z,84.50
2023-02-06T06:48:20.832Z,46.90
2023-02-06T06:49:20.795Z,63.00
2023-02-06T06:50:20.794Z,57.50
2023-02-06T06:51:20.764Z,59.20
2023-02-06T06:52:25.274Z,55.00
2023-02-06T06:53:20.775Z,53.20
2023-02-06T06:54:20.743Z,54.60
2023-02-06T06:55:20.740Z,60.30
2023-02-06T06:56:20.718Z,54.50
2023-02-06T06:57:20.744Z,57.50
2023-02-06T06:58:20.692Z,58.20
2023-02-06T06:59:20.761Z,60.00
2023-02-06T07:00:20.692Z,47.10
2023-02-06T07:01:20.717Z,42.80
2023-02-06T07:02:20.680Z,53.60
2023-02-06T07:03:20.753Z,36.00
2023-02-06T07:04:20.658Z,34.40
2023-02-06T07:05:20.624Z,39.40
2023-02-06T07:06:20.610Z,40.70
2023-02-06T07:07:20.620Z,42.40
2023-02-06T07:08:20.665Z,41.70
2023-02-06T07:09:20.594Z,39.10
2023-02-06T07:10:20.570Z,43.80
2023-02-06T07:11:20.570Z,44.10
2023-02-06T07:12:20.620Z,28.80
2023-02-06T07:13:20.544Z,36.40
2023-02-06T07:14:20.568Z,36.30
2023-02-06T07:15:20.527Z,35.50
2023-02-06T07:16:20.670Z,34.40
2023-02-06T07:17:20.492Z,38.30
2023-02-06T07:18:20.488Z,28.90
2023-02-06T07:19:20.468Z,37.40
2023-02-06T07:20:20.469Z,34.50
2023-02-06T07:21:20.464Z,35.50
2023-02-06T07:22:20.501Z,31.80
2023-02-06T07:23:20.428Z,33.30
2023-02-06T07:24:20.430Z,39.20
2023-02-06T07:25:20.987Z,41.90
2023-02-06T07:26:20.409Z,31.90
2023-02-06T07:27:20.387Z,31.30
2023-02-06T07:28:20.412Z,34.10
2023-02-06T07:29:20.381Z,32.60
2023-02-06T07:30:20.447Z,45.20
2023-02-06T07:31:20.351Z,34.90
2023-02-06T07:32:20.344Z,47.40
2023-02-06T07:33:20.326Z,32.60
2023-02-06T07:34:20.412Z,39.00
2023-02-06T07:35:20.296Z,35.60
2023-02-06T07:36:20.296Z,43.60
2023-02-06T07:37:20.321Z,38.40
2023-02-06T07:38:20.277Z,24.00
2023-02-06T07:39:20.277Z,39.30
2023-02-06T07:40:20.256Z,30.10
2023-02-06T07:41:20.274Z,35.40
2023-02-06T07:42:20.236Z,35.20
2023-02-06T07:43:20.256Z,32.10
2023-02-06T07:44:20.214Z,27.90
2023-02-06T07:45:20.194Z,31.90
2023-02-06T07:46:20.319Z,26.90
2023-02-06T07:47:20.175Z,36.50
2023-02-06T07:48:20.215Z,30.90
2023-02-06T07:49:20.153Z,39.10
2023-02-06T07:50:20.142Z,26.30
2023-02-06T07:51:20.130Z,31.40
2023-02-06T07:52:20.132Z,32.80
2023-02-06T07:53:20.144Z,36.00
2023-02-06T07:54:20.942Z,25.70
2023-02-06T07:55:20.183Z,28.80
2023-02-06T07:56:20.080Z,35.30
2023-02-06T07:57:20.551Z,24.50
2023-02-06T07:58:20.100Z,35.70
2023-02-06T07:59:20.041Z,26.20
2023-02-06T08:00:20.088Z,29.50
2023-02-06T08:01:20.065Z,26.50
2023-02-06T08:02:20.060Z,44.30
2023-02-06T08:03:20.008Z,26.40
2023-02-06T08:04:20.092Z,25.20
2023-02-06T08:05:20.040Z,22.60
2023-02-06T08:06:20.034Z,23.70
2023-02-06T08:07:19.966Z,24.00
2023-02-06T08:08:19.958Z,25.20
2023-02-06T08:09:19.940Z,31.00
2023-02-06T08:10:19.942Z,47.20
2023-02-06T08:11:19.950Z,36.60
2023-02-06T08:12:19.929Z,48.30
2023-02-06T08:13:19.898Z,63.20
2023-02-06T08:14:19.880Z,46.10
2023-02-06T08:15:19.891Z,46.80
2023-02-06T08:16:21.701Z,37.80
2023-02-06T08:17:19.866Z,40.50
2023-02-06T08:18:19.853Z,43.60
2023-02-06T08:19:19.832Z,40.60
2023-02-06T08:20:19.859Z,48.40
2023-02-06T08:21:19.816Z,40.40
2023-02-06T08:22:19.851Z,37.80
2023-02-06T08:23:20.898Z,37.10
2023-02-06T08:24:19.797Z,42.30
2023-02-06T08:25:19.771Z,58.20
2023-02-06T08:26:19.811Z,38.90
2023-02-06T08:27:19.749Z,41.00
2023-02-06T08:28:19.878Z,36.60
2023-02-06T08:29:19.737Z,48.80
2023-02-06T08:30:19.759Z,48.20
2023-02-06T08:31:19.815Z,53.70
2023-02-06T08:32:19.707Z,47.00
2023-02-06T08:33:19.687Z,43.90
2023-02-06T08:34:19.826Z,52.30
2023-02-06T08:35:19.695Z,42.00
2023-02-06T08:36:19.716Z,45.40
2023-02-06T08:37:19.679Z,39.40
2023-02-06T08:38:19.636Z,41.90
2023-02-06T08:39:19.625Z,41.50
2023-02-06T08:40:19.630Z,44.00
2023-02-06T08:41:19.636Z,49.10
2023-02-06T08:42:19.598Z,44.40
2023-02-06T08:43:19.586Z,37.80
2023-02-06T08:44:19.576Z,35.10
2023-02-06T08:45:19.575Z,41.90
2023-02-06T08:46:19.611Z,38.80
2023-02-06T08:47:19.666Z,39.80
2023-02-06T08:48:19.537Z,41.80
2023-02-06T08:49:19.525Z,39.60
2023-02-06T08:50:19.514Z,41.00
2023-02-06T08:51:19.503Z,40.50
2023-02-06T08:52:19.494Z,35.20
2023-02-06T08:53:19.634Z,42.60
2023-02-06T08:54:19.471Z,40.50
2023-02-06T08:55:19.460Z,47.40
2023-02-06T08:56:20.444Z,42.50
2023-02-06T08:57:19.448Z,43.80
2023-02-06T08:58:19.452Z,46.60
2023-02-06T08:59:19.451Z,42.20
2023-02-06T09:00:19.410Z,41.30
2023-02-06T09:01:19.468Z,37.20
2023-02-06T09:02:19.402Z,42.20
2023-02-06T09:03:21.000Z,47.80
2023-02-06T09:04:19.449Z,39.30
2023-02-06T09:05:19.352Z,42.00
2023-02-06T09:06:19.352Z,40.70
2023-02-06T09:07:19.344Z,38.30
2023-02-06T09:08:19.321Z,37.90
2023-02-06T09:09:19.340Z,37.00
2023-02-06T09:10:27.460Z,37.70
2023-02-06T09:11:20.300Z,38.90
2023-02-06T09:12:19.285Z,35.90
2023-02-06T09:13:19.272Z,40.50
2023-02-06T09:14:19.270Z,34.30
2023-02-06T09:15:19.251Z,36.70
2023-02-06T09:16:19.337Z,32.50
2023-02-06T09:17:19.238Z,36.90
2023-02-06T09:18:19.221Z,37.00
2023-02-06T09:19:19.349Z,37.10
2023-02-06T09:20:19.209Z,35.00
2023-02-06T09:21:19.188Z,33.70
2023-02-06T09:22:19.188Z,39.60
2023-02-06T09:23:19.166Z,33.90
2023-02-06T09:24:19.164Z,33.80
2023-02-06T09:25:19.220Z,34.10
2023-02-06T09:26:19.153Z,29.10
2023-02-06T09:27:19.124Z,34.70
2023-02-06T09:28:19.182Z,31.20
2023-02-06T09:29:19.096Z,31.30
2023-02-06T09:30:19.096Z,36.20
2023-02-06T09:31:19.222Z,32.00
2023-02-06T09:32:19.094Z,32.60
2023-02-06T09:33:19.053Z,29.50
2023-02-06T09:34:19.051Z,31.70
2023-02-06T09:35:19.059Z,37.10
2023-02-06T09:36:19.054Z,29.70
2023-02-06T09:37:19.024Z,39.30
2023-02-06T09:38:19.020Z,40.50
2023-02-06T09:39:19.003Z,77.20
2023-02-06T09:40:18.984Z,71.80
2023-02-06T09:41:19.021Z,41.40
2023-02-06T09:42:19.005Z,37.70
2023-02-06T09:43:18.962Z,35.60
2023-02-06T09:44:18.981Z,30.10
2023-02-06T09:45:18.943Z,36.60
2023-02-06T09:46:18.941Z,31.00
2023-02-06T09:47:18.909Z,31.80
2023-02-06T09:48:18.897Z,35.10
2023-02-06T09:49:18.906Z,30.80
2023-02-06T09:50:18.950Z,32.30
2023-02-06T09:51:18.880Z,37.40
2023-02-06T09:52:18.855Z,32.20
2023-02-06T09:53:18.853Z,36.80
2023-02-06T09:54:18.829Z,41.70
2023-02-06T09:55:18.833Z,36.40
2023-02-06T09:56:19.151Z,36.20
2023-02-06T09:57:18.808Z,38.40
2023-02-06T09:58:18.790Z,34.60
2023-02-06T09:59:18.792Z,34.40
2023-02-06T10:00:18.816Z,40.80
2023-02-06T10:01:18.927Z,42.30
2023-02-06T10:02:18.747Z,39.00
2023-02-06T10:03:18.750Z,34.90
2023-02-06T10:04:18.825Z,37.80
2023-02-06T10:05:18.720Z,38.80
2023-02-06T10:06:18.707Z,33.00
2023-02-06T10:07:18.763Z,36.30
2023-02-06T10:08:18.729Z,39.20
2023-02-06T10:09:18.713Z,39.20
2023-02-06T10:10:18.721Z,35.00
2023-02-06T10:11:18.709Z,37.10
2023-02-06T10:12:18.686Z,33.10
2023-02-06T10:13:18.643Z,37.50
2023-02-06T10:14:18.653Z,33.40
2023-02-06T10:15:18.616Z,36.00
2023-02-06T10:16:18.673Z,33.20
2023-02-06T10:17:18.635Z,36.70
2023-02-06T10:18:18.602Z,36.80
2023-02-06T10:19:18.588Z,36.50
2023-02-06T10:20:18.576Z,37.40
2023-02-06T10:21:18.616Z,40.40
2023-02-06T10:22:18.578Z,37.00
2023-02-06T10:23:18.555Z,37.30
2023-02-06T10:24:18.516Z,37.30
2023-02-06T10:25:18.541Z,36.70
2023-02-06T10:26:18.684Z,35.20
2023-02-06T10:27:18.551Z,36.50
2023-02-06T10:28:18.544Z,36.60
2023-02-06T10:29:18.467Z,33.00
2023-02-06T10:30:18.524Z,34.10
2023-02-06T10:31:18.619Z,33.80
2023-02-06T10:32:18.441Z,37.00
2023-02-06T10:33:25.257Z,37.50
2023-02-06T10:34:19.418Z,39.80
2023-02-06T10:35:18.409Z,43.90
2023-02-06T10:36:18.414Z,43.10
2023-02-06T10:37:18.420Z,38.20
2023-02-06T10:38:18.380Z,44.10
2023-02-06T10:39:18.367Z,41.30
2023-02-06T10:40:18.349Z,36.10
2023-02-06T10:41:18.370Z,42.70
2023-02-06T10:42:18.339Z,39.30
2023-02-06T10:43:18.500Z,40.60
2023-02-06T10:44:18.364Z,36.40
2023-02-06T10:45:20.392Z,42.00
2023-02-06T10:46:18.410Z,32.70
2023-02-06T10:47:18.288Z,36.50
2023-02-06T10:48:18.280Z,42.90
2023-02-06T10:49:18.316Z,37.00
2023-02-06T10:50:18.260Z,37.00
2023-02-06T10:51:18.246Z,40.70
2023-02-06T10:52:18.239Z,36.90
2023-02-06T10:53:18.239Z,34.30
2023-02-06T10:54:18.296Z,34.20
2023-02-06T10:55:18.244Z,38.90
2023-02-06T10:56:18.188Z,37.70
2023-02-06T10:57:25.700Z,37.90
2023-02-06T10:58:18.190Z,37.30
2023-02-06T10:59:18.580Z,29.80
2023-02-06T11:00:18.151Z,34.80
2023-02-06T11:01:26.140Z,40.40
2023-02-06T11:02:19.169Z,37.50
2023-02-06T11:03:18.119Z,38.00
2023-02-06T11:04:18.111Z,37.80
2023-02-06T11:05:18.128Z,37.20
2023-02-06T11:06:18.083Z,36.80
2023-02-06T11:07:18.115Z,38.60
2023-02-06T11:08:18.056Z,38.30
2023-02-06T11:09:18.090Z,40.50
2023-02-06T11:10:19.755Z,34.90
2023-02-06T11:11:18.026Z,37.70
2023-02-06T11:12:18.074Z,39.80
2023-02-06T11:13:18.006Z,39.00
2023-02-06T11:14:18.001Z,38.10
2023-02-06T11:15:18.058Z,40.90
2023-02-06T11:16:18.025Z,34.20
2023-02-06T11:17:17.996Z,40.80
2023-02-06T11:18:17.997Z,39.30
2023-02-06T11:19:17.955Z,39.10
2023-02-06T11:20:17.978Z,42.20
2023-02-06T11:21:17.925Z,39.00
2023-02-06T11:22:19.617Z,39.40
2023-02-06T11:23:17.919Z,37.90
2023-02-06T11:24:17.904Z,40.10
2023-02-06T11:25:17.875Z,35.40
2023-02-06T11:26:17.872Z,37.60
2023-02-06T11:27:17.915Z,37.30
2023-02-06T11:28:17.958Z,39.10
2023-02-06T11:29:17.849Z,39.00
2023-02-06T11:30:17.835Z,36.10
2023-02-06T11:31:17.898Z,40.50
2023-02-06T11:32:17.798Z,41.40
2023-02-06T11:33:17.843Z,39.60
2023-02-06T11:34:17.777Z,39.60
2023-02-06T11:35:17.773Z,43.00
2023-02-06T11:36:17.841Z,44.80
2023-02-06T11:37:17.800Z,41.50
2023-02-06T11:38:17.953Z,49.10
2023-02-06T11:39:17.764Z,45.80
2023-02-06T11:40:17.715Z,47.80
2023-02-06T11:41:17.761Z,49.80
2023-02-06T11:42:17.693Z,45.20
2023-02-06T11:43:17.731Z,39.40
2023-02-06T11:44:17.682Z,42.70
2023-02-06T11:45:17.697Z,38.70
2023-02-06T11:46:17.717Z,35.90
2023-02-06T11:47:17.688Z,36.90
2023-02-06T11:48:24.078Z,37.40
2023-02-06T11:49:17.671Z,28.10
2023-02-06T11:50:17.612Z,30.70
2023-02-06T11:51:17.606Z,36.40
2023-02-06T11:52:17.589Z,32.90
2023-02-06T11:53:17.603Z,32.50
2023-02-06T11:54:17.596Z,40.00
2023-02-06T11:55:20.812Z,34.80
2023-02-06T11:56:17.647Z,35.30
2023-02-06T11:57:17.546Z,37.20
2023-02-06T11:58:17.529Z,32.90
2023-02-06T11:59:17.509Z,35.80
2023-02-06T12:00:17.498Z,33.40
2023-02-06T12:01:17.528Z,28.20
2023-02-06T12:02:17.539Z,31.00
2023-02-06T12:03:17.528Z,28.30
2023-02-06T12:04:17.461Z,35.20
2023-02-06T12:05:17.472Z,33.50
2023-02-06T12:06:17.440Z,27.50
2023-02-06T12:07:17.483Z,27.40
2023-02-06T12:08:17.426Z,33.90
2023-02-06T12:09:17.431Z,31.90
2023-02-06T12:10:17.390Z,33.00
2023-02-06T12:11:17.419Z,34.00
2023-02-06T12:12:17.439Z,31.60
2023-02-06T12:13:17.370Z,33.30
2023-02-06T12:14:19.206Z,35.80
2023-02-06T12:15:46.630Z,33.10
2023-02-06T12:16:18.437Z,41.40
2023-02-06T12:17:17.330Z,32.60
2023-02-06T12:18:17.411Z,29.60
2023-02-06T12:19:17.339Z,33.10
2023-02-06T12:20:17.298Z,34.10
2023-02-06T12:21:17.322Z,39.90
2023-02-06T12:22:17.362Z,34.10
2023-02-06T12:23:17.273Z,32.80
2023-02-06T12:24:17.288Z,34.10
2023-02-06T12:25:17.249Z,36.60
2023-02-06T12:26:17.236Z,34.30
2023-02-06T12:27:17.229Z,32.70
2023-02-06T12:28:17.219Z,33.30
2023-02-06T12:29:17.199Z,34.10
2023-02-06T12:30:18.920Z,39.10
2023-02-06T12:31:17.276Z,41.10
2023-02-06T12:32:17.174Z,37.70
2023-02-06T12:33:17.199Z,35.70
2023-02-06T12:34:17.138Z,38.40
2023-02-06T12:35:17.132Z,40.30
2023-02-06T12:36:17.147Z,42.60
2023-02-06T12:37:17.172Z,39.50
2023-02-06T12:38:17.104Z,39.80
2023-02-06T12:39:17.706Z,46.90
2023-02-06T12:40:17.128Z,47.50
2023-02-06T12:41:17.079Z,43.50
2023-02-06T12:42:17.063Z,44.20
2023-02-06T12:43:17.050Z,43.70
2023-02-06T12:44:17.031Z,46.40
2023-02-06T12:45:17.032Z,44.10
2023-02-06T12:46:18.829Z,50.50
2023-02-06T12:47:17.125Z,44.10
2023-02-06T12:48:17.000Z,48.40
2023-02-06T12:49:16.989Z,42.70
2023-02-06T12:50:16.969Z,41.70
2023-02-06T12:51:16.966Z,47.30